createdAt,value
2023-03-13T00:00:04.008Z,8.40
2023-03-13T00:01:04.339Z,9.40
2023-03-13T00:02:04.814Z,8.20
2023-03-13T00:03:05.104Z,8.60
2023-03-13T00:04:05.398Z,7.80
2023-03-13T00:05:05.756Z,7.40
2023-03-13T00:06:05.998Z,7.40
2023-03-13T00:07:06.231Z,8.00
2023-03-13T00:08:06.439Z,7.90
2023-03-13T00:09:06.809Z,8.50
2023-03-13T00:10:07.047Z,9.40
2023-03-13T00:11:07.274Z,8.30
2023-03-13T00:12:07.498Z,7.90
2023-03-13T00:13:07.744Z,8.40
2023-03-13T00:14:08.029Z,8.70
2023-03-13T00:15:08.273Z,8.20
2023-03-13T00:16:08.645Z,7.20
2023-03-13T00:17:08.990Z,8.00
2023-03-13T00:18:09.181Z,8.00
2023-03-13T00:19:09.438Z,8.70
2023-03-13T00:20:09.657Z,8.00
2023-03-13T00:21:10.019Z,8.90
2023-03-13T00:22:10.292Z,9.40
2023-03-13T00:23:10.528Z,8.40
2023-03-13T00:24:10.750Z,8.20
2023-03-13T00:25:11.093Z,7.50
2023-03-13T00:26:11.330Z,8.10
2023-03-13T00:27:11.620Z,8.20
2023-03-13T00:28:11.877Z,8.00
2023-03-13T00:29:12.152Z,9.10
2023-03-13T00:30:12.410Z,8.50
2023-03-13T00:31:12.764Z,9.30
2023-03-13T00:32:13.089Z,8.50
2023-03-13T00:33:13.352Z,8.30
2023-03-13T00:34:13.698Z,7.90
2023-03-13T00:35:13.964Z,8.20
2023-03-13T00:36:14.269Z,9.00
2023-03-13T00:37:14.533Z,8.80
2023-03-13T00:38:14.863Z,8.70
2023-03-13T00:39:15.186Z,8.80
2023-03-13T00:40:15.464Z,8.60
2023-03-13T00:41:15.726Z,8.90
2023-03-13T00:42:16.044Z,8.20
2023-03-13T00:43:16.236Z,8.30
2023-03-13T00:44:16.493Z,7.80
2023-03-13T00:45:16.757Z,10.20
2023-03-13T00:46:17.116Z,8.60
2023-03-13T00:47:17.312Z,8.40
2023-03-13T00:48:17.598Z,8.10
2023-03-13T00:49:17.919Z,7.40
2023-03-13T00:50:18.165Z,8.40
2023-03-13T00:51:18.454Z,7.40
2023-03-13T00:52:18.714Z,8.40
2023-03-13T00:53:18.997Z,8.80
2023-03-13T00:54:19.294Z,8.70
2023-03-13T00:55:19.634Z,8.80
2023-03-13T00:56:19.890Z,9.00
2023-03-13T00:57:20.238Z,8.60
2023-03-13T00:58:20.467Z,8.40
2023-03-13T00:59:20.733Z,8.00
2023-03-13T01:00:21.007Z,8.50
2023-03-13T01:01:21.303Z,7.90
2023-03-13T01:02:21.702Z,9.00
2023-03-13T01:03:22.127Z,8.40
2023-03-13T01:04:22.237Z,8.10
2023-03-13T01:05:22.543Z,7.90
2023-03-13T01:06:22.876Z,8.20
2023-03-13T01:07:23.165Z,8.30
2023-03-13T01:08:23.525Z,7.70
2023-03-13T01:09:23.818Z,9.20
2023-03-13T01:10:24.209Z,7.90
2023-03-13T01:11:24.443Z,7.50
2023-03-13T01:12:24.796Z,8.20
2023-03-13T01:13:25.014Z,8.50
2023-03-13T01:14:25.314Z,9.10
2023-03-13T01:15:25.560Z,7.70
2023-03-13T01:16:25.866Z,10.20
2023-03-13T01:17:26.227Z,8.30
2023-03-13T01:18:26.443Z,8.50
2023-03-13T01:19:26.770Z,8.70
2023-03-13T01:20:27.037Z,9.00
2023-03-13T01:21:27.301Z,7.90
2023-03-13T01:22:27.642Z,8.30
2023-03-13T01:23:27.906Z,7.30
2023-03-13T01:24:28.149Z,7.50
2023-03-13T01:25:28.549Z,7.30
2023-03-13T01:26:28.773Z,9.00
2023-03-13T01:27:28.964Z,8.40
2023-03-13T01:28:29.189Z,6.90
2023-03-13T01:29:29.444Z,7.90
2023-03-13T01:30:29.678Z,7.10
2023-03-13T01:31:30.008Z,7.60
2023-03-13T01:32:30.219Z,7.10
2023-03-13T01:33:30.444Z,7.90
2023-03-13T01:34:30.748Z,8.50
2023-03-13T01:35:31.019Z,8.20
2023-03-13T01:36:31.281Z,8.50
2023-03-13T01:37:31.484Z,7.40
2023-03-13T01:38:31.814Z,8.60
2023-03-13T01:39:32.185Z,7.80
2023-03-13T01:40:32.424Z,7.70
2023-03-13T01:41:32.654Z,7.70
2023-03-13T01:42:32.948Z,8.20
2023-03-13T01:43:33.153Z,8.50
2023-03-13T01:44:33.502Z,7.30
2023-03-13T01:45:33.823Z,7.60
2023-03-13T01:46:34.196Z,9.60
2023-03-13T01:47:34.442Z,8.60
2023-03-13T01:48:34.661Z,8.90
2023-03-13T01:49:34.883Z,7.80
2023-03-13T01:50:35.236Z,7.20
2023-03-13T01:51:35.465Z,7.00
2023-03-13T01:52:35.881Z,7.70
2023-03-13T01:53:36.165Z,8.70
2023-03-13T01:54:36.532Z,8.20
2023-03-13T01:55:36.776Z,8.40
2023-03-13T01:56:37.074Z,7.90
2023-03-13T01:57:37.436Z,9.70
2023-03-13T01:58:37.696Z,8.40
2023-03-13T01:59:38.000Z,9.00
2023-03-13T02:00:38.357Z,8.00
2023-03-13T02:01:38.741Z,8.20
2023-03-13T02:02:38.965Z,7.80
2023-03-13T02:03:39.249Z,8.50
2023-03-13T02:04:39.441Z,8.40
2023-03-13T02:05:39.813Z,6.60
2023-03-13T02:06:40.070Z,8.80
2023-03-13T02:07:40.407Z,7.70
2023-03-13T02:08:40.648Z,9.00
2023-03-13T02:09:40.991Z,7.60
2023-03-13T02:10:41.282Z,7.80
2023-03-13T02:11:41.585Z,8.50
2023-03-13T02:12:41.868Z,8.00
2023-03-13T02:13:42.259Z,9.60
2023-03-13T02:14:42.567Z,8.00
2023-03-13T02:15:42.825Z,7.60
2023-03-13T02:16:43.080Z,8.40
2023-03-13T02:17:43.388Z,8.70
2023-03-13T02:18:43.650Z,6.10
2023-03-13T02:19:43.926Z,9.20
2023-03-13T02:20:44.159Z,8.40
2023-03-13T02:21:44.418Z,8.00
2023-03-13T02:22:44.656Z,9.30
2023-03-13T02:23:44.925Z,9.30
2023-03-13T02:24:45.194Z,9.30
2023-03-13T02:25:45.502Z,9.30
2023-03-13T02:26:45.800Z,9.50
2023-03-13T02:27:46.061Z,8.50
2023-03-13T02:28:46.305Z,7.50
2023-03-13T02:29:46.556Z,8.40
2023-03-13T02:30:46.833Z,8.00
2023-03-13T02:31:47.190Z,8.50
2023-03-13T02:32:47.445Z,8.10
2023-03-13T02:33:47.651Z,8.90
2023-03-13T02:34:48.039Z,9.40
2023-03-13T02:35:48.301Z,10.80
2023-03-13T02:36:48.601Z,9.10
2023-03-13T02:37:48.889Z,7.40
2023-03-13T02:38:49.189Z,7.40
2023-03-13T02:39:49.511Z,8.40
2023-03-13T02:40:49.817Z,9.70
2023-03-13T02:41:50.082Z,6.70
2023-03-13T02:42:50.394Z,8.80
2023-03-13T02:43:50.676Z,7.80
2023-03-13T02:44:50.946Z,8.50
2023-03-13T02:45:51.278Z,7.00
2023-03-13T02:46:51.608Z,7.80
2023-03-13T02:47:51.838Z,8.20
2023-03-13T02:48:52.126Z,9.10
2023-03-13T02:49:52.350Z,7.80
2023-03-13T02:50:52.748Z,9.60
2023-03-13T02:51:52.981Z,10.30
2023-03-13T02:52:53.246Z,7.90
2023-03-13T02:53:53.519Z,7.30
2023-03-13T02:54:53.918Z,9.70
2023-03-13T02:55:54.188Z,7.80
2023-03-13T02:56:54.445Z,9.20
2023-03-13T02:57:54.735Z,10.50
2023-03-13T02:58:54.969Z,9.00
2023-03-13T02:59:55.370Z,9.40
2023-03-13T03:00:55.729Z,7.30
2023-03-13T03:01:55.944Z,8.00
2023-03-13T03:02:56.243Z,8.60
2023-03-13T03:03:56.554Z,11.30
2023-03-13T03:04:56.756Z,8.50
2023-03-13T03:05:57.115Z,9.60
2023-03-13T03:06:57.362Z,8.30
2023-03-13T03:07:57.595Z,10.50
2023-03-13T03:08:57.885Z,8.70
2023-03-13T03:09:58.096Z,9.20
2023-03-13T03:10:58.426Z,8.20
2023-03-13T03:11:58.772Z,9.10
2023-03-13T03:12:59.157Z,8.70
2023-03-13T03:13:59.417Z,8.60
2023-03-13T03:14:59.656Z,8.30
2023-03-13T03:15:59.899Z,7.20
2023-03-13T03:17:00.125Z,7.30
2023-03-13T03:18:00.362Z,9.90
2023-03-13T03:19:00.635Z,8.50
2023-03-13T03:20:00.837Z,10.10
2023-03-13T03:21:01.088Z,7.70
2023-03-13T03:22:01.306Z,7.40
2023-03-13T03:23:01.645Z,9.20
2023-03-13T03:24:02.004Z,9.90
2023-03-13T03:25:02.225Z,9.20
2023-03-13T03:26:02.590Z,10.10
2023-03-13T03:27:02.825Z,9.20
2023-03-13T03:28:03.070Z,7.90
2023-03-13T03:29:03.300Z,7.50
2023-03-13T03:30:03.540Z,10.00
2023-03-13T03:31:03.803Z,7.60
2023-03-13T03:32:04.104Z,8.80
2023-03-13T03:33:04.399Z,8.20
2023-03-13T03:34:04.642Z,7.50
2023-03-13T03:35:04.873Z,9.50
2023-03-13T03:36:05.226Z,9.90
2023-03-13T03:37:05.449Z,9.80
2023-03-13T03:38:05.718Z,8.30
2023-03-13T03:39:05.955Z,8.00
2023-03-13T03:40:06.213Z,9.90
2023-03-13T03:41:06.424Z,8.30
2023-03-13T03:42:06.760Z,9.40
2023-03-13T03:43:07.138Z,7.70
2023-03-13T03:44:07.348Z,8.80
2023-03-13T03:45:07.675Z,8.90
2023-03-13T03:46:08.109Z,8.10
2023-03-13T03:47:08.367Z,7.80
2023-03-13T03:48:08.627Z,8.60
2023-03-13T03:49:08.833Z,7.40
2023-03-13T03:50:09.165Z,8.60
2023-03-13T03:51:09.484Z,9.60
2023-03-13T03:52:09.818Z,8.70
2023-03-13T03:53:10.174Z,9.10
2023-03-13T03:54:18.014Z,9.20
2023-03-13T03:55:10.823Z,6.80
2023-03-13T03:56:11.154Z,8.90
2023-03-13T03:57:11.455Z,6.40
2023-03-13T03:58:11.775Z,8.10
2023-03-13T03:59:12.103Z,6.90
2023-03-13T04:00:12.422Z,8.70
2023-03-13T04:01:12.743Z,6.70
2023-03-13T04:02:13.135Z,10.00
2023-03-13T04:03:13.376Z,7.30
2023-03-13T04:04:13.695Z,9.50
2023-03-13T04:05:14.017Z,11.70
2023-03-13T04:06:14.364Z,9.80
2023-03-13T04:07:14.688Z,10.20
2023-03-13T04:08:15.014Z,7.50
2023-03-13T04:09:15.329Z,8.50
2023-03-13T04:10:15.645Z,10.70
2023-03-13T04:11:15.979Z,7.70
2023-03-13T04:12:16.304Z,9.10
2023-03-13T04:13:16.633Z,10.80
2023-03-13T04:14:17.010Z,10.10
2023-03-13T04:15:17.199Z,8.90
2023-03-13T04:16:17.607Z,10.20
2023-03-13T04:17:17.864Z,9.50
2023-03-13T04:18:18.215Z,8.30
2023-03-13T04:19:18.541Z,8.40
2023-03-13T04:20:18.892Z,9.90
2023-03-13T04:21:19.085Z,9.80
2023-03-13T04:22:19.412Z,8.90
2023-03-13T04:23:19.752Z,8.40
2023-03-13T04:24:20.104Z,7.20
2023-03-13T04:25:20.302Z,8.80
2023-03-13T04:26:20.632Z,7.50
2023-03-13T04:27:20.977Z,8.40
2023-03-13T04:28:21.331Z,7.40
2023-03-13T04:29:21.552Z,7.00
2023-03-13T04:30:21.892Z,9.50
2023-03-13T04:31:22.227Z,8.80
2023-03-13T04:32:22.636Z,9.40
2023-03-13T04:33:22.857Z,7.50
2023-03-13T04:34:23.184Z,10.20
2023-03-13T04:35:23.499Z,9.30
2023-03-13T04:36:23.758Z,8.20
2023-03-13T04:37:23.976Z,7.20
2023-03-13T04:38:24.303Z,6.50
2023-03-13T04:39:24.643Z,6.90
2023-03-13T04:40:24.965Z,8.30
2023-03-13T04:41:25.291Z,7.60
2023-03-13T04:42:25.624Z,6.80
2023-03-13T04:43:25.978Z,9.40
2023-03-13T04:44:26.190Z,8.00
2023-03-13T04:45:26.519Z,7.10
2023-03-13T04:46:26.804Z,7.80
2023-03-13T04:47:27.059Z,5.30
2023-03-13T04:48:27.404Z,9.50
2023-03-13T04:49:27.698Z,9.00
2023-03-13T04:50:28.018Z,7.90
2023-03-13T04:51:28.344Z,7.70
2023-03-13T04:52:28.690Z,9.30
2023-03-13T04:53:28.967Z,6.30
2023-03-13T04:54:29.362Z,9.20
2023-03-13T04:55:29.558Z,8.10
2023-03-13T04:56:42.615Z,7.40
2023-03-13T04:57:31.206Z,10.00
2023-03-13T04:58:30.498Z,9.30
2023-03-13T04:59:30.712Z,7.70
2023-03-13T05:00:31.034Z,8.10
2023-03-13T05:01:31.385Z,11.10
2023-03-13T05:02:31.630Z,7.00
2023-03-13T05:03:31.961Z,7.90
2023-03-13T05:04:32.418Z,7.60
2023-03-13T05:05:32.667Z,7.40
2023-03-13T05:06:32.894Z,7.90
2023-03-13T05:07:33.202Z,7.10
2023-03-13T05:08:33.541Z,8.70
2023-03-13T05:09:33.882Z,7.90
2023-03-13T05:10:34.213Z,10.00
2023-03-13T05:11:34.443Z,9.70
2023-03-13T05:12:34.773Z,8.60
2023-03-13T05:13:35.115Z,7.50
2023-03-13T05:14:35.435Z,9.30
2023-03-13T05:15:35.811Z,8.60
2023-03-13T05:16:36.014Z,7.20
2023-03-13T05:17:36.381Z,8.10
2023-03-13T05:18:36.654Z,8.70
2023-03-13T05:19:36.825Z,9.30
2023-03-13T05:20:37.156Z,6.80
2023-03-13T05:21:37.483Z,8.00
2023-03-13T05:22:37.808Z,7.10
2023-03-13T05:23:38.164Z,7.70
2023-03-13T05:24:41.471Z,9.00
2023-03-13T05:25:38.829Z,8.20
2023-03-13T05:26:39.177Z,5.90
2023-03-13T05:27:39.498Z,8.80
2023-03-13T05:28:39.840Z,10.40
2023-03-13T05:29:40.070Z,9.50
2023-03-13T05:30:40.436Z,8.00
2023-03-13T05:31:40.657Z,7.40
2023-03-13T05:32:41.104Z,7.70
2023-03-13T05:33:41.350Z,8.90
2023-03-13T05:34:41.565Z,8.40
2023-03-13T05:35:41.815Z,7.00
2023-03-13T05:36:42.152Z,7.90
2023-03-13T05:37:42.378Z,8.80
2023-03-13T05:38:42.636Z,7.70
2023-03-13T05:39:42.856Z,6.60
2023-03-13T05:40:43.084Z,8.30
2023-03-13T05:41:43.438Z,7.30
2023-03-13T05:42:43.688Z,8.10
2023-03-13T05:43:44.044Z,7.90
2023-03-13T05:44:44.149Z,7.20
2023-03-13T05:45:44.473Z,8.50
2023-03-13T05:46:44.866Z,8.60
2023-03-13T05:47:45.145Z,8.70
2023-03-13T05:48:45.380Z,7.40
2023-03-13T05:49:45.606Z,10.40
2023-03-13T05:50:45.851Z,9.20
2023-03-13T05:51:46.097Z,8.30
2023-03-13T05:52:46.327Z,6.70
2023-03-13T05:53:46.568Z,8.90
2023-03-13T05:54:46.781Z,8.40
2023-03-13T05:55:47.139Z,8.30
2023-03-13T05:56:47.440Z,8.60
2023-03-13T05:57:47.661Z,7.10
2023-03-13T05:58:48.032Z,10.10
2023-03-13T05:59:48.252Z,8.90
2023-03-13T06:00:48.593Z,7.60
2023-03-13T06:01:48.932Z,6.90
2023-03-13T06:02:49.169Z,7.60
2023-03-13T06:03:49.511Z,9.60
2023-03-13T06:04:49.775Z,8.70
2023-03-13T06:05:49.932Z,7.50
2023-03-13T06:06:50.148Z,6.90
2023-03-13T06:07:50.488Z,7.70
2023-03-13T06:08:51.521Z,9.40
2023-03-13T06:09:51.059Z,10.80
2023-03-13T06:10:51.283Z,6.90
2023-03-13T06:11:51.623Z,8.40
2023-03-13T06:12:52.040Z,7.80
2023-03-13T06:13:52.303Z,9.00
2023-03-13T06:14:52.512Z,6.40
2023-03-13T06:15:52.897Z,6.90
2023-03-13T06:16:53.143Z,6.30
2023-03-13T06:17:53.360Z,10.10
2023-03-13T06:18:53.643Z,8.10
2023-03-13T06:19:54.654Z,8.70
2023-03-13T06:20:54.139Z,9.80
2023-03-13T06:21:54.375Z,10.60
2023-03-13T06:22:54.595Z,9.10
2023-03-13T06:23:54.939Z,7.30
2023-03-13T06:24:55.281Z,8.00
2023-03-13T06:25:55.626Z,6.40
2023-03-13T06:26:55.963Z,8.40
2023-03-13T06:27:56.306Z,8.20
2023-03-13T06:28:56.658Z,8.00
2023-03-13T06:29:56.891Z,10.50
2023-03-13T06:30:57.153Z,7.50
2023-03-13T06:31:57.640Z,8.30
2023-03-13T06:32:57.772Z,7.80
2023-03-13T06:33:57.946Z,10.40
2023-03-13T06:34:58.187Z,8.40
2023-03-13T06:35:58.483Z,8.20
2023-03-13T06:36:58.715Z,8.60
2023-03-13T06:37:59.064Z,9.20
2023-03-13T06:38:59.286Z,8.20
2023-03-13T06:39:59.505Z,9.30
2023-03-13T06:40:59.782Z,9.20
2023-03-13T06:42:00.105Z,9.60
2023-03-13T06:43:00.331Z,10.30
2023-03-13T06:44:00.612Z,8.80
2023-03-13T06:45:00.847Z,9.30
2023-03-13T06:46:01.076Z,8.20
2023-03-13T06:47:01.397Z,8.90
2023-03-13T06:48:01.617Z,7.70
2023-03-13T06:49:01.868Z,7.80
2023-03-13T06:50:02.118Z,7.60
2023-03-13T06:51:02.348Z,7.20
2023-03-13T06:52:02.579Z,10.30
2023-03-13T06:53:02.861Z,8.40
2023-03-13T06:54:03.105Z,7.30
2023-03-13T06:55:04.161Z,8.20
2023-03-13T06:56:03.575Z,8.10
2023-03-13T06:57:03.810Z,8.20
2023-03-13T06:58:04.040Z,9.50
2023-03-13T06:59:04.311Z,10.10
2023-03-13T07:00:04.564Z,6.90
2023-03-13T07:01:04.869Z,7.50
2023-03-13T07:02:05.042Z,8.60
2023-03-13T07:03:05.297Z,8.50
2023-03-13T07:04:05.676Z,8.20
2023-03-13T07:05:05.871Z,7.80
2023-03-13T07:06:06.027Z,8.50
2023-03-13T07:07:06.265Z,7.00
2023-03-13T07:08:06.498Z,9.20
2023-03-13T07:09:06.755Z,9.90
2023-03-13T07:10:06.980Z,8.60
2023-03-13T07:11:07.220Z,6.60
2023-03-13T07:12:07.453Z,7.40
2023-03-13T07:13:07.693Z,7.80
2023-03-13T07:14:16.495Z,8.20
2023-03-13T07:15:09.150Z,9.20
2023-03-13T07:16:08.483Z,8.10
2023-03-13T07:17:08.767Z,7.70
2023-03-13T07:18:09.006Z,7.20
2023-03-13T07:19:09.240Z,9.00
2023-03-13T07:20:09.669Z,8.10
2023-03-13T07:21:09.779Z,7.50
2023-03-13T07:22:10.024Z,10.30
2023-03-13T07:23:10.286Z,7.60
2023-03-13T07:24:10.654Z,5.90
2023-03-13T07:25:11.614Z,9.20
2023-03-13T07:26:11.911Z,8.10
2023-03-13T07:27:12.149Z,6.80
2023-03-13T07:28:11.600Z,9.80
2023-03-13T07:29:11.954Z,6.90
2023-03-13T07:30:12.089Z,6.90
2023-03-13T07:31:12.418Z,8.10
2023-03-13T07:32:12.780Z,9.20
2023-03-13T07:33:13.837Z,7.90
2023-03-13T07:34:13.197Z,7.10
2023-03-13T07:35:13.443Z,6.60
2023-03-13T07:36:13.749Z,7.70
2023-03-13T07:37:13.925Z,8.90
2023-03-13T07:38:14.167Z,11.20
2023-03-13T07:39:14.446Z,7.70
2023-03-13T07:40:14.690Z,7.80
2023-03-13T07:41:14.991Z,6.40
2023-03-13T07:42:15.251Z,6.30
2023-03-13T07:43:15.515Z,7.80
2023-03-13T07:44:15.860Z,10.50
2023-03-13T07:45:16.017Z,8.10
2023-03-13T07:46:16.358Z,7.50
2023-03-13T07:47:16.535Z,9.90
2023-03-13T07:48:16.766Z,7.90
2023-03-13T07:49:17.030Z,12.30
2023-03-13T07:50:17.358Z,9.10
2023-03-13T07:51:17.524Z,6.60
2023-03-13T07:52:17.763Z,7.90
2023-03-13T07:53:18.079Z,7.20
2023-03-13T07:54:18.332Z,8.80
2023-03-13T07:55:18.597Z,7.40
2023-03-13T07:56:18.831Z,9.10
2023-03-13T07:57:19.081Z,8.40
2023-03-13T07:58:19.356Z,8.30
2023-03-13T07:59:19.646Z,7.50
2023-03-13T08:00:19.892Z,9.30
2023-03-13T08:01:20.162Z,7.10
2023-03-13T08:02:20.483Z,6.80
2023-03-13T08:03:20.822Z,6.90
2023-03-13T08:04:21.101Z,9.20
2023-03-13T08:05:21.393Z,6.40
2023-03-13T08:06:21.678Z,7.50
2023-03-13T08:07:21.959Z,7.50
2023-03-13T08:08:22.243Z,7.50
2023-03-13T08:09:22.516Z,7.80
2023-03-13T08:10:22.852Z,7.30
2023-03-13T08:11:23.105Z,10.30
2023-03-13T08:12:23.389Z,6.90
2023-03-13T08:13:23.655Z,8.30
2023-03-13T08:14:23.949Z,7.90
2023-03-13T08:15:24.260Z,7.40
2023-03-13T08:16:24.582Z,7.40
2023-03-13T08:17:24.846Z,5.80
2023-03-13T08:18:25.136Z,8.20
2023-03-13T08:19:25.479Z,8.40
2023-03-13T08:20:25.710Z,6.00
2023-03-13T08:21:26.091Z,7.40
2023-03-13T08:22:26.252Z,8.90
2023-03-13T08:23:26.545Z,8.80
2023-03-13T08:24:26.877Z,9.00
2023-03-13T08:25:27.166Z,7.50
2023-03-13T08:26:27.743Z,8.90
2023-03-13T08:27:27.904Z,9.20
2023-03-13T08:28:28.083Z,6.50
2023-03-13T08:29:28.569Z,6.60
2023-03-13T08:30:28.826Z,6.60
2023-03-13T08:31:29.209Z,7.10
2023-03-13T08:32:29.520Z,7.00
2023-03-13T08:33:29.635Z,8.30
2023-03-13T08:34:30.124Z,5.90
2023-03-13T08:35:30.174Z,7.80
2023-03-13T08:36:30.486Z,9.10
2023-03-13T08:37:30.825Z,7.10
2023-03-13T08:38:31.177Z,9.30
2023-03-13T08:39:31.410Z,8.70
2023-03-13T08:40:31.693Z,6.90
2023-03-13T08:41:31.949Z,8.90
2023-03-13T08:42:32.196Z,7.00
2023-03-13T08:43:32.527Z,7.60
2023-03-13T08:44:32.780Z,6.80
2023-03-13T08:45:33.111Z,9.30
2023-03-13T08:46:33.390Z,7.50
2023-03-13T08:47:33.600Z,8.80
2023-03-13T08:48:33.953Z,6.70
2023-03-13T08:49:34.311Z,6.50
2023-03-13T08:50:34.558Z,7.40
2023-03-13T08:51:34.793Z,6.70
2023-03-13T08:52:35.262Z,7.30
2023-03-13T08:53:35.433Z,6.50
2023-03-13T08:54:35.793Z,8.80
2023-03-13T08:55:36.005Z,8.30
2023-03-13T08:56:36.237Z,9.90
2023-03-13T08:57:36.565Z,8.00
2023-03-13T08:58:37.430Z,5.50
2023-03-13T08:59:37.259Z,6.20
2023-03-13T09:00:37.545Z,7.30
2023-03-13T09:01:37.788Z,6.00
2023-03-13T09:02:38.051Z,7.10
2023-03-13T09:03:38.334Z,7.40
2023-03-13T09:04:38.577Z,5.90
2023-03-13T09:05:54.862Z,6.70
2023-03-13T09:06:40.270Z,7.80
2023-03-13T09:07:39.520Z,7.50
2023-03-13T09:08:39.877Z,5.60
2023-03-13T09:09:40.265Z,5.20
2023-03-13T09:10:40.491Z,6.70
2023-03-13T09:11:40.709Z,6.20
2023-03-13T09:12:42.071Z,6.50
2023-03-13T09:13:41.311Z,6.90
2023-03-13T09:14:41.716Z,5.50
2023-03-13T09:15:41.952Z,6.30
2023-03-13T09:16:42.268Z,8.30
2023-03-13T09:17:42.531Z,4.60
2023-03-13T09:18:42.763Z,6.50
2023-03-13T09:19:57.680Z,6.70
2023-03-13T09:20:44.209Z,8.10
2023-03-13T09:21:43.465Z,4.30
2023-03-13T09:22:43.784Z,6.70
2023-03-13T09:23:44.221Z,5.20
2023-03-13T09:24:44.581Z,7.00
2023-03-13T09:25:44.764Z,4.30
2023-03-13T09:27:00.173Z,5.80
2023-03-13T09:27:46.398Z,4.50
2023-03-13T09:28:45.646Z,5.20
2023-03-13T09:29:46.004Z,3.80
2023-03-13T09:30:46.312Z,3.40
2023-03-13T09:31:46.544Z,5.20
2023-03-13T09:32:47.004Z,4.20
2023-03-13T09:33:47.197Z,4.70
2023-03-13T09:34:47.602Z,3.80
2023-03-13T09:35:47.871Z,4.80
2023-03-13T09:36:48.099Z,4.30
2023-03-13T09:37:48.326Z,3.50
2023-03-13T09:38:48.571Z,4.90
2023-03-13T09:39:48.847Z,4.60
2023-03-13T09:41:04.908Z,3.90
2023-03-13T09:41:50.428Z,5.90
2023-03-13T09:42:49.718Z,5.00
2023-03-13T09:43:50.105Z,3.80
2023-03-13T09:44:50.351Z,3.50
2023-03-13T09:45:50.579Z,4.30
2023-03-13T09:46:50.889Z,5.40
2023-03-13T09:47:51.129Z,4.60
2023-03-13T09:48:51.401Z,6.20
2023-03-13T09:49:51.700Z,4.00
2023-03-13T09:50:51.923Z,3.50
2023-03-13T09:51:52.286Z,4.30
2023-03-13T09:52:52.633Z,3.70
2023-03-13T09:53:52.878Z,5.00
2023-03-13T09:55:02.284Z,4.10
2023-03-13T09:55:53.447Z,4.70
2023-03-13T09:56:53.688Z,6.00
2023-03-13T09:57:53.947Z,4.60
2023-03-13T09:58:54.179Z,3.70
2023-03-13T09:59:54.460Z,5.10
2023-03-13T10:00:54.742Z,5.40
2023-03-13T10:01:55.072Z,4.70
2023-03-13T10:02:55.318Z,5.30
2023-03-13T10:03:55.561Z,6.00
2023-03-13T10:04:55.837Z,4.20
2023-03-13T10:05:56.072Z,5.10
2023-03-13T10:06:56.320Z,4.90
2023-03-13T10:07:56.588Z,5.80
2023-03-13T10:08:56.818Z,5.00
2023-03-13T10:09:57.106Z,5.70
2023-03-13T10:10:57.431Z,6.90
2023-03-13T10:11:57.648Z,4.50
2023-03-13T10:12:57.896Z,5.00
2023-03-13T10:13:58.160Z,4.50
2023-03-13T10:14:58.412Z,4.60
2023-03-13T10:15:58.758Z,6.20
2023-03-13T10:16:59.041Z,4.90
2023-03-13T10:17:59.288Z,4.40
2023-03-13T10:18:59.592Z,4.90
2023-03-13T10:19:59.884Z,3.90
2023-03-13T10:21:00.129Z,5.50
2023-03-13T10:22:00.382Z,5.50
2023-03-13T10:23:00.638Z,5.60
2023-03-13T10:24:01.213Z,5.30
2023-03-13T10:25:01.162Z,3.30
2023-03-13T10:26:01.411Z,5.00
2023-03-13T10:27:01.684Z,5.10
2023-03-13T10:28:02.007Z,3.70
2023-03-13T10:29:02.286Z,3.10
2023-03-13T10:30:02.541Z,5.10
2023-03-13T10:31:02.797Z,4.00
2023-03-13T10:32:03.069Z,4.30
2023-03-13T10:33:03.317Z,6.20
2023-03-13T10:34:03.595Z,3.60
2023-03-13T10:35:04.054Z,4.70
2023-03-13T10:36:04.170Z,4.80
2023-03-13T10:37:04.412Z,3.80
2023-03-13T10:38:04.768Z,4.10
2023-03-13T10:39:05.008Z,4.80
2023-03-13T10:40:05.350Z,4.70
2023-03-13T10:41:05.653Z,4.10
2023-03-13T10:42:05.905Z,4.10
2023-03-13T10:43:06.159Z,4.70
2023-03-13T10:44:06.512Z,4.20
2023-03-13T10:45:06.788Z,3.30
2023-03-13T10:46:07.205Z,3.80
2023-03-13T10:47:07.307Z,4.70
2023-03-13T10:48:07.576Z,4.10
2023-03-13T10:49:07.888Z,4.50
2023-03-13T10:50:08.197Z,5.90
2023-03-13T10:51:08.476Z,5.40
2023-03-13T10:52:08.780Z,4.00
2023-03-13T10:53:09.046Z,4.60
2023-03-13T10:54:09.313Z,4.00
2023-03-13T10:55:09.593Z,5.20
2023-03-13T10:56:09.870Z,4.70
2023-03-13T10:57:10.142Z,4.00
2023-03-13T10:58:10.436Z,5.30
2023-03-13T10:59:10.722Z,5.30
2023-03-13T11:00:11.054Z,4.90
2023-03-13T11:01:11.309Z,4.10
2023-03-13T11:02:11.667Z,4.30
2023-03-13T11:03:12.020Z,4.50
2023-03-13T11:04:12.158Z,3.40
2023-03-13T11:05:13.623Z,3.50
2023-03-13T11:06:12.730Z,4.70
2023-03-13T11:07:13.014Z,3.00
2023-03-13T11:08:13.329Z,3.50
2023-03-13T11:09:13.604Z,4.00
2023-03-13T11:10:13.915Z,4.10
2023-03-13T11:11:14.209Z,3.10
2023-03-13T11:12:14.474Z,3.40
2023-03-13T11:13:15.950Z,3.10
2023-03-13T11:14:15.107Z,4.10
2023-03-13T11:15:15.549Z,3.10
2023-03-13T11:16:15.750Z,4.50
2023-03-13T11:17:15.919Z,4.00
2023-03-13T11:18:16.204Z,4.50
2023-03-13T11:19:16.503Z,2.30
2023-03-13T11:20:16.809Z,4.30
2023-03-13T11:21:18.591Z,4.40
2023-03-13T11:22:17.425Z,3.90
2023-03-13T11:23:17.694Z,3.80
2023-03-13T11:24:18.001Z,5.00
2023-03-13T11:25:18.271Z,2.70
2023-03-13T11:26:18.558Z,4.70
2023-03-13T11:27:18.782Z,4.50
2023-03-13T11:28:19.054Z,4.10
2023-03-13T11:29:19.338Z,3.90
2023-03-13T11:30:19.690Z,2.90
2023-03-13T11:31:20.001Z,4.70
2023-03-13T11:32:20.308Z,4.50
2023-03-13T11:33:20.560Z,5.90
2023-03-13T11:34:20.831Z,6.10
2023-03-13T11:35:21.141Z,3.80
2023-03-13T11:36:21.403Z,3.40
2023-03-13T11:37:21.679Z,3.70
2023-03-13T11:38:21.951Z,5.10
2023-03-13T11:39:22.275Z,3.40
2023-03-13T11:40:22.758Z,5.10
2023-03-13T11:41:22.964Z,4.70
2023-03-13T11:42:23.215Z,2.90
2023-03-13T11:43:25.667Z,4.30
2023-03-13T11:44:23.745Z,3.90
2023-03-13T11:45:24.032Z,4.40
2023-03-13T11:46:24.382Z,3.20
2023-03-13T11:47:24.513Z,4.20
2023-03-13T11:48:24.754Z,4.30
2023-03-13T11:49:25.770Z,3.90
2023-03-13T11:50:25.385Z,3.40
2023-03-13T11:51:25.683Z,3.30
2023-03-13T11:52:25.958Z,4.10
2023-03-13T11:53:26.258Z,4.10
2023-03-13T11:54:26.526Z,4.10
2023-03-13T11:55:26.802Z,2.40
2023-03-13T11:56:27.066Z,2.30
2023-03-13T11:57:27.318Z,3.10
2023-03-13T11:58:27.587Z,3.30
2023-03-13T11:59:27.839Z,3.60
2023-03-13T12:00:28.115Z,5.70
2023-03-13T12:01:28.393Z,4.20
2023-03-13T12:02:28.743Z,4.40
2023-03-13T12:03:28.980Z,4.90
2023-03-13T12:04:29.149Z,3.30
2023-03-13T12:05:29.530Z,3.60
2023-03-13T12:06:31.465Z,2.80
2023-03-13T12:07:30.005Z,2.90
2023-03-13T12:08:30.298Z,2.80
2023-03-13T12:09:30.577Z,3.60
2023-03-13T12:10:30.850Z,2.00
2023-03-13T12:11:31.122Z,2.70
2023-03-13T12:12:31.418Z,3.10
2023-03-13T12:13:31.696Z,2.80
2023-03-13T12:14:31.977Z,3.20
2023-03-13T12:15:32.260Z,2.10
2023-03-13T12:16:32.539Z,2.70
2023-03-13T12:17:32.894Z,2.50
2023-03-13T12:18:33.001Z,1.80
2023-03-13T12:19:33.268Z,1.80
2023-03-13T12:20:33.565Z,1.80
2023-03-13T12:21:33.902Z,2.00
2023-03-13T12:22:34.192Z,1.50
2023-03-13T12:23:34.532Z,1.70
2023-03-13T12:24:34.720Z,3.20
2023-03-13T12:25:36.139Z,2.70
2023-03-13T12:26:35.259Z,1.90
2023-03-13T12:27:35.537Z,3.00
2023-03-13T12:28:35.900Z,2.90
2023-03-13T12:29:36.039Z,1.50
2023-03-13T12:30:36.356Z,2.40
2023-03-13T12:31:36.621Z,1.90
2023-03-13T12:32:36.992Z,1.60
2023-03-13T12:33:37.120Z,1.20
2023-03-13T12:34:37.395Z,1.70
2023-03-13T12:35:37.663Z,1.80
2023-03-13T12:36:37.944Z,1.50
2023-03-13T12:37:38.223Z,2.50
2023-03-13T12:38:38.525Z,1.30
2023-03-13T12:39:38.780Z,2.00
2023-03-13T12:40:39.107Z,2.60
2023-03-13T12:41:39.356Z,2.70
2023-03-13T12:42:39.644Z,1.30
2023-03-13T12:43:39.895Z,2.20
2023-03-13T12:44:40.212Z,2.20
2023-03-13T12:45:40.572Z,2.00
2023-03-13T12:46:40.780Z,0.70
2023-03-13T12:47:41.055Z,1.10
2023-03-13T12:48:41.301Z,1.70
2023-03-13T12:49:41.553Z,2.40
2023-03-13T12:50:41.851Z,1.80
2023-03-13T12:51:42.082Z,1.30
2023-03-13T12:52:42.333Z,1.80
2023-03-13T12:53:42.651Z,1.90
2023-03-13T12:54:42.940Z,2.70
2023-03-13T12:55:43.224Z,1.70
2023-03-13T12:56:43.554Z,2.50
2023-03-13T12:57:43.852Z,1.40
2023-03-13T12:58:44.219Z,1.30
2023-03-13T12:59:44.387Z,0.80
2023-03-13T13:00:44.695Z,1.70
2023-03-13T13:01:45.013Z,1.40
2023-03-13T13:02:45.258Z,1.50
2023-03-13T13:03:45.540Z,1.90
2023-03-13T13:04:45.859Z,1.10
2023-03-13T13:05:46.121Z,1.10
2023-03-13T13:06:46.381Z,1.10
2023-03-13T13:07:46.941Z,1.20
2023-03-13T13:08:46.870Z,1.40
2023-03-13T13:09:47.117Z,1.90
2023-03-13T13:10:47.418Z,1.70
2023-03-13T13:11:47.667Z,1.80
2023-03-13T13:12:47.924Z,1.30
2023-03-13T13:13:48.175Z,1.60
2023-03-13T13:14:48.450Z,1.00
2023-03-13T13:15:48.752Z,1.50
2023-03-13T13:16:49.020Z,1.10
2023-03-13T13:17:49.279Z,1.00
2023-03-13T13:18:49.536Z,1.10
2023-03-13T13:19:49.885Z,1.90
2023-03-13T13:20:50.183Z,1.10